Terminal Aerodrome Forecast
Issued by NWS Twin Cities, MN

Home | Current Version | Previous Version | Graphics & Text | Print | Product List | Glossary On
Versions: 1 2 3 4 5 6 7 8 9 10 11 12 13 14 15
757
FTUS43 KMPX 250520
TAFEAU
TAF
KEAU 250520Z 2506/2606 VRB03KT P6SM SCT030 OVC050
     FM250900 06002KT 4SM BR SCT015 BKN025
      TEMPO 2509/2512 2SM BR BKN015
     FM251400 13005KT P6SM SCT025 BKN035
     FM252100 16007KT P6SM BKN050 OVC100=

USA.gov is the U.S. government's official web portal to all federal, state and local government web resources and services.